sensor_id;sensor_type;location;lat;lon;timestamp;P1;durP1;ratioP1;P2;durP2;ratioP2
249;SDS011;109;19.806;-70.704;2023-11-21T00:00:59;10.87;;;3.30;;
249;SDS011;109;19.806;-70.704;2023-11-21T00:03:30;17.57;;;3.70;;
249;SDS011;109;19.806;-70.704;2023-11-21T00:05:56;15.43;;;3.90;;
249;SDS011;109;19.806;-70.704;2023-11-21T00:08:23;33.97;;;5.50;;
249;SDS011;109;19.806;-70.704;2023-11-21T00:10:49;21.20;;;4.13;;
249;SDS011;109;19.806;-70.704;2023-11-21T00:13:16;17.33;;;3.50;;
249;SDS011;109;19.806;-70.704;2023-11-21T00:15:43;16.63;;;3.27;;
249;SDS011;109;19.806;-70.704;2023-11-21T00:18:09;20.60;;;4.20;;
249;SDS011;109;19.806;-70.704;2023-11-21T00:20:36;34.37;;;4.63;;
249;SDS011;109;19.806;-70.704;2023-11-21T00:23:02;41.50;;;7.57;;
249;SDS011;109;19.806;-70.704;2023-11-21T00:25:29;31.87;;;6.33;;
249;SDS011;109;19.806;-70.704;2023-11-21T00:27:57;31.63;;;6.20;;
249;SDS011;109;19.806;-70.704;2023-11-21T00:30:23;33.23;;;5.50;;
249;SDS011;109;19.806;-70.704;2023-11-21T00:32:50;35.93;;;6.30;;
249;SDS011;109;19.806;-70.704;2023-11-21T00:35:16;23.33;;;4.70;;
249;SDS011;109;19.806;-70.704;2023-11-21T00:37:42;19.17;;;4.53;;
249;SDS011;109;19.806;-70.704;2023-11-21T00:40:09;21.33;;;4.00;;
249;SDS011;109;19.806;-70.704;2023-11-21T00:42:36;27.60;;;4.23;;
249;SDS011;109;19.806;-70.704;2023-11-21T00:45:03;29.90;;;4.80;;
249;SDS011;109;19.806;-70.704;2023-11-21T00:47:30;20.37;;;4.50;;
249;SDS011;109;19.806;-70.704;2023-11-21T00:50:03;24.53;;;4.30;;
249;SDS011;109;19.806;-70.704;2023-11-21T00:52:31;16.17;;;4.70;;
249;SDS011;109;19.806;-70.704;2023-11-21T00:55:05;25.87;;;4.20;;
249;SDS011;109;19.806;-70.704;2023-11-21T00:57:33;25.00;;;4.90;;
249;SDS011;109;19.806;-70.704;2023-11-21T01:00:07;20.70;;;4.63;;
249;SDS011;109;19.806;-70.704;2023-11-21T01:02:49;19.80;;;4.40;;
249;SDS011;109;19.806;-70.704;2023-11-21T01:05:15;14.40;;;3.47;;
249;SDS011;109;19.806;-70.704;2023-11-21T01:07:48;22.63;;;4.87;;
249;SDS011;109;19.806;-70.704;2023-11-21T01:10:14;13.27;;;4.90;;
249;SDS011;109;19.806;-70.704;2023-11-21T01:12:49;10.63;;;5.30;;
249;SDS011;109;19.806;-70.704;2023-11-21T01:15:15;14.10;;;6.20;;
249;SDS011;109;19.806;-70.704;2023-11-21T01:17:48;11.07;;;5.70;;
249;SDS011;109;19.806;-70.704;2023-11-21T01:20:14;16.37;;;5.40;;
249;SDS011;109;19.806;-70.704;2023-11-21T01:22:47;13.60;;;5.10;;
249;SDS011;109;19.806;-70.704;2023-11-21T01:25:14;19.57;;;5.87;;
249;SDS011;109;19.806;-70.704;2023-11-21T01:27:48;10.03;;;5.20;;
249;SDS011;109;19.806;-70.704;2023-11-21T01:30:15;19.10;;;4.97;;
249;SDS011;109;19.806;-70.704;2023-11-21T01:32:48;10.33;;;5.00;;
249;SDS011;109;19.806;-70.704;2023-11-21T01:35:14;10.80;;;5.50;;
249;SDS011;109;19.806;-70.704;2023-11-21T01:37:54;13.20;;;4.97;;
249;SDS011;109;19.806;-70.704;2023-11-21T01:40:34;9.63;;;4.90;;
249;SDS011;109;19.806;-70.704;2023-11-21T01:43:01;11.03;;;5.70;;
249;SDS011;109;19.806;-70.704;2023-11-21T01:45:37;11.47;;;5.40;;
249;SDS011;109;19.806;-70.704;2023-11-21T01:48:04;15.93;;;5.33;;
249;SDS011;109;19.806;-70.704;2023-11-21T01:50:39;18.07;;;5.00;;
249;SDS011;109;19.806;-70.704;2023-11-21T01:53:07;12.77;;;5.07;;
249;SDS011;109;19.806;-70.704;2023-11-21T01:55:41;15.10;;;5.80;;
249;SDS011;109;19.806;-70.704;2023-11-21T01:58:09;20.10;;;5.90;;
249;SDS011;109;19.806;-70.704;2023-11-21T02:00:45;11.40;;;5.27;;
249;SDS011;109;19.806;-70.704;2023-11-21T02:03:11;8.60;;;5.20;;
249;SDS011;109;19.806;-70.704;2023-11-21T02:05:44;16.90;;;5.70;;
249;SDS011;109;19.806;-70.704;2023-11-21T02:08:10;14.27;;;5.67;;
249;SDS011;109;19.806;-70.704;2023-11-21T02:10:44;13.27;;;5.63;;
249;SDS011;109;19.806;-70.704;2023-11-21T02:13:11;17.90;;;4.97;;
249;SDS011;109;19.806;-70.704;2023-11-21T02:15:44;19.73;;;5.47;;
249;SDS011;109;19.806;-70.704;2023-11-21T02:18:10;17.03;;;5.20;;
249;SDS011;109;19.806;-70.704;2023-11-21T02:20:48;14.03;;;5.23;;
249;SDS011;109;19.806;-70.704;2023-11-21T02:23:14;12.67;;;4.70;;
249;SDS011;109;19.806;-70.704;2023-11-21T02:25:48;11.90;;;4.83;;
249;SDS011;109;19.806;-70.704;2023-11-21T02:28:15;11.40;;;5.10;;
249;SDS011;109;19.806;-70.704;2023-11-21T02:30:57;15.00;;;6.13;;
249;SDS011;109;19.806;-70.704;2023-11-21T02:33:24;16.80;;;5.67;;
249;SDS011;109;19.806;-70.704;2023-11-21T02:36:06;17.73;;;5.13;;
249;SDS011;109;19.806;-70.704;2023-11-21T02:38:40;13.30;;;5.10;;
249;SDS011;109;19.806;-70.704;2023-11-21T02:41:26;14.07;;;5.63;;
249;SDS011;109;19.806;-70.704;2023-11-21T02:44:00;11.00;;;6.00;;
249;SDS011;109;19.806;-70.704;2023-11-21T02:46:26;17.67;;;4.67;;
249;SDS011;109;19.806;-70.704;2023-11-21T02:49:00;14.17;;;6.00;;
249;SDS011;109;19.806;-70.704;2023-11-21T02:51:28;23.03;;;6.20;;
249;SDS011;109;19.806;-70.704;2023-11-21T02:54:01;15.47;;;6.30;;
249;SDS011;109;19.806;-70.704;2023-11-21T02:56:31;10.93;;;4.97;;
249;SDS011;109;19.806;-70.704;2023-11-21T02:59:05;13.47;;;4.90;;
249;SDS011;109;19.806;-70.704;2023-11-21T03:01:31;11.60;;;4.73;;
249;SDS011;109;19.806;-70.704;2023-11-21T03:04:04;9.60;;;4.30;;
249;SDS011;109;19.806;-70.704;2023-11-21T03:06:32;9.03;;;4.50;;
249;SDS011;109;19.806;-70.704;2023-11-21T03:09:06;10.53;;;3.90;;
249;SDS011;109;19.806;-70.704;2023-11-21T03:11:33;12.90;;;4.00;;
249;SDS011;109;19.806;-70.704;2023-11-21T03:14:06;8.97;;;4.83;;
249;SDS011;109;19.806;-70.704;2023-11-21T03:16:39;6.80;;;4.40;;
249;SDS011;109;19.806;-70.704;2023-11-21T03:19:13;11.27;;;4.50;;
249;SDS011;109;19.806;-70.704;2023-11-21T03:21:40;9.93;;;3.97;;
249;SDS011;109;19.806;-70.704;2023-11-21T03:24:13;8.83;;;4.00;;
249;SDS011;109;19.806;-70.704;2023-11-21T03:26:46;9.20;;;4.30;;
249;SDS011;109;19.806;-70.704;2023-11-21T03:29:19;11.10;;;4.43;;
249;SDS011;109;19.806;-70.704;2023-11-21T03:31:45;7.80;;;4.23;;
249;SDS011;109;19.806;-70.704;2023-11-21T03:34:27;8.13;;;4.50;;
249;SDS011;109;19.806;-70.704;2023-11-21T03:37:07;10.03;;;4.10;;
249;SDS011;109;19.806;-70.704;2023-11-21T03:39:40;9.87;;;3.07;;
249;SDS011;109;19.806;-70.704;2023-11-21T03:42:26;17.30;;;2.83;;
249;SDS011;109;19.806;-70.704;2023-11-21T03:45:00;7.03;;;2.30;;
249;SDS011;109;19.806;-70.704;2023-11-21T03:47:27;6.10;;;2.80;;
249;SDS011;109;19.806;-70.704;2023-11-21T03:50:00;13.87;;;2.80;;
249;SDS011;109;19.806;-70.704;2023-11-21T03:52:26;8.20;;;2.50;;
249;SDS011;109;19.806;-70.704;2023-11-21T03:55:01;10.67;;;3.00;;
249;SDS011;109;19.806;-70.704;2023-11-21T03:57:28;11.20;;;3.20;;
249;SDS011;109;19.806;-70.704;2023-11-21T04:00:03;5.70;;;3.27;;
249;SDS011;109;19.806;-70.704;2023-11-21T04:02:40;9.27;;;3.70;;
249;SDS011;109;19.806;-70.704;2023-11-21T04:05:06;12.67;;;3.37;;
249;SDS011;109;19.806;-70.704;2023-11-21T04:07:39;10.13;;;4.23;;
249;SDS011;109;19.806;-70.704;2023-11-21T04:10:06;15.87;;;3.60;;
249;SDS011;109;19.806;-70.704;2023-11-21T04:12:45;22.33;;;3.63;;
249;SDS011;109;19.806;-70.704;2023-11-21T04:15:12;21.60;;;4.33;;
249;SDS011;109;19.806;-70.704;2023-11-21T04:17:54;17.03;;;4.20;;
249;SDS011;109;19.806;-70.704;2023-11-21T04:20:28;7.80;;;3.70;;
249;SDS011;109;19.806;-70.704;2023-11-21T04:22:54;12.63;;;3.60;;
249;SDS011;109;19.806;-70.704;2023-11-21T04:25:27;9.43;;;3.50;;
249;SDS011;109;19.806;-70.704;2023-11-21T04:27:53;12.13;;;3.70;;
249;SDS011;109;19.806;-70.704;2023-11-21T04:30:26;12.87;;;4.00;;
249;SDS011;109;19.806;-70.704;2023-11-21T04:32:52;13.13;;;3.93;;
249;SDS011;109;19.806;-70.704;2023-11-21T04:35:25;13.10;;;3.50;;
249;SDS011;109;19.806;-70.704;2023-11-21T04:37:51;13.23;;;3.37;;
249;SDS011;109;19.806;-70.704;2023-11-21T04:40:24;15.43;;;3.50;;
249;SDS011;109;19.806;-70.704;2023-11-21T04:43:04;17.63;;;3.17;;
249;SDS011;109;19.806;-70.704;2023-11-21T04:45:31;11.90;;;3.33;;
249;SDS011;109;19.806;-70.704;2023-11-21T04:48:04;6.00;;;2.73;;
249;SDS011;109;19.806;-70.704;2023-11-21T04:50:32;14.60;;;3.60;;
249;SDS011;109;19.806;-70.704;2023-11-21T04:53:05;12.70;;;3.23;;
249;SDS011;109;19.806;-70.704;2023-11-21T04:55:31;9.00;;;3.40;;
249;SDS011;109;19.806;-70.704;2023-11-21T04:58:04;10.37;;;3.47;;
249;SDS011;109;19.806;-70.704;2023-11-21T05:00:30;10.77;;;4.00;;
249;SDS011;109;19.806;-70.704;2023-11-21T05:03:03;11.87;;;3.70;;
249;SDS011;109;19.806;-70.704;2023-11-21T05:05:30;7.10;;;3.20;;
249;SDS011;109;19.806;-70.704;2023-11-21T05:08:03;10.23;;;2.80;;
249;SDS011;109;19.806;-70.704;2023-11-21T05:10:30;7.00;;;3.43;;
249;SDS011;109;19.806;-70.704;2023-11-21T05:13:03;13.00;;;3.60;;
249;SDS011;109;19.806;-70.704;2023-11-21T05:15:30;5.10;;;3.43;;
249;SDS011;109;19.806;-70.704;2023-11-21T05:18:10;9.23;;;3.10;;
249;SDS011;109;19.806;-70.704;2023-11-21T05:20:46;6.10;;;2.50;;
249;SDS011;109;19.806;-70.704;2023-11-21T05:23:13;15.10;;;3.00;;
249;SDS011;109;19.806;-70.704;2023-11-21T05:25:46;6.57;;;2.80;;
249;SDS011;109;19.806;-70.704;2023-11-21T05:28:12;13.13;;;3.33;;
249;SDS011;109;19.806;-70.704;2023-11-21T05:30:46;14.37;;;3.23;;
249;SDS011;109;19.806;-70.704;2023-11-21T05:33:12;7.30;;;2.90;;
249;SDS011;109;19.806;-70.704;2023-11-21T05:35:48;9.10;;;2.83;;
249;SDS011;109;19.806;-70.704;2023-11-21T05:38:14;7.20;;;2.67;;
249;SDS011;109;19.806;-70.704;2023-11-21T05:40:47;12.20;;;2.97;;
249;SDS011;109;19.806;-70.704;2023-11-21T05:43:27;11.20;;;3.00;;
249;SDS011;109;19.806;-70.704;2023-11-21T05:45:55;8.33;;;2.97;;
249;SDS011;109;19.806;-70.704;2023-11-21T05:48:31;10.53;;;3.80;;
249;SDS011;109;19.806;-70.704;2023-11-21T05:50:57;10.87;;;3.40;;
249;SDS011;109;19.806;-70.704;2023-11-21T05:53:31;5.40;;;3.10;;
249;SDS011;109;19.806;-70.704;2023-11-21T05:55:57;10.67;;;3.30;;
249;SDS011;109;19.806;-70.704;2023-11-21T05:58:30;17.60;;;3.47;;
249;SDS011;109;19.806;-70.704;2023-11-21T06:00:56;9.23;;;3.10;;
249;SDS011;109;19.806;-70.704;2023-11-21T06:03:30;8.40;;;3.27;;
249;SDS011;109;19.806;-70.704;2023-11-21T06:05:56;10.00;;;3.10;;
249;SDS011;109;19.806;-70.704;2023-11-21T06:08:29;7.07;;;3.00;;
249;SDS011;109;19.806;-70.704;2023-11-21T06:10:55;7.70;;;2.83;;
249;SDS011;109;19.806;-70.704;2023-11-21T06:13:28;5.50;;;2.90;;
249;SDS011;109;19.806;-70.704;2023-11-21T06:16:01;7.80;;;2.93;;
249;SDS011;109;19.806;-70.704;2023-11-21T06:18:34;9.63;;;3.50;;
249;SDS011;109;19.806;-70.704;2023-11-21T06:21:00;15.10;;;3.43;;
249;SDS011;109;19.806;-70.704;2023-11-21T06:23:33;20.13;;;4.93;;
249;SDS011;109;19.806;-70.704;2023-11-21T06:25:59;26.90;;;5.10;;
249;SDS011;109;19.806;-70.704;2023-11-21T06:28:32;18.33;;;3.70;;
249;SDS011;109;19.806;-70.704;2023-11-21T06:30:58;11.50;;;3.23;;
249;SDS011;109;19.806;-70.704;2023-11-21T06:33:37;6.53;;;2.50;;
249;SDS011;109;19.806;-70.704;2023-11-21T06:36:03;16.20;;;3.20;;
249;SDS011;109;19.806;-70.704;2023-11-21T06:38:38;12.33;;;3.07;;
249;SDS011;109;19.806;-70.704;2023-11-21T06:41:25;17.47;;;3.03;;
249;SDS011;109;19.806;-70.704;2023-11-21T06:43:58;4.47;;;2.57;;
249;SDS011;109;19.806;-70.704;2023-11-21T06:46:24;8.17;;;2.53;;
249;SDS011;109;19.806;-70.704;2023-11-21T06:48:58;10.03;;;2.80;;
249;SDS011;109;19.806;-70.704;2023-11-21T06:51:24;16.73;;;2.60;;
249;SDS011;109;19.806;-70.704;2023-11-21T06:53:58;19.17;;;3.27;;
249;SDS011;109;19.806;-70.704;2023-11-21T06:56:24;14.77;;;2.73;;
249;SDS011;109;19.806;-70.704;2023-11-21T06:58:57;11.50;;;2.53;;
249;SDS011;109;19.806;-70.704;2023-11-21T07:01:23;9.67;;;2.47;;
249;SDS011;109;19.806;-70.704;2023-11-21T07:04:05;9.10;;;2.67;;
249;SDS011;109;19.806;-70.704;2023-11-21T07:06:38;15.60;;;3.23;;
249;SDS011;109;19.806;-70.704;2023-11-21T07:09:04;19.60;;;3.30;;
249;SDS011;109;19.806;-70.704;2023-11-21T07:11:37;11.23;;;2.80;;
249;SDS011;109;19.806;-70.704;2023-11-21T07:14:04;11.63;;;2.97;;
249;SDS011;109;19.806;-70.704;2023-11-21T07:16:39;23.97;;;3.47;;
249;SDS011;109;19.806;-70.704;2023-11-21T07:19:06;18.93;;;3.23;;
249;SDS011;109;19.806;-70.704;2023-11-21T07:21:40;11.40;;;2.93;;
249;SDS011;109;19.806;-70.704;2023-11-21T07:24:06;9.50;;;2.90;;
249;SDS011;109;19.806;-70.704;2023-11-21T07:26:40;5.80;;;2.70;;
249;SDS011;109;19.806;-70.704;2023-11-21T07:29:06;7.93;;;3.37;;
249;SDS011;109;19.806;-70.704;2023-11-21T07:31:41;6.80;;;3.50;;
249;SDS011;109;19.806;-70.704;2023-11-21T07:34:08;8.63;;;3.00;;
249;SDS011;109;19.806;-70.704;2023-11-21T07:36:41;6.50;;;2.57;;
249;SDS011;109;19.806;-70.704;2023-11-21T07:39:07;5.90;;;2.40;;
249;SDS011;109;19.806;-70.704;2023-11-21T07:41:40;12.30;;;2.73;;
249;SDS011;109;19.806;-70.704;2023-11-21T07:44:23;4.50;;;2.40;;
249;SDS011;109;19.806;-70.704;2023-11-21T07:46:49;9.33;;;2.43;;
249;SDS011;109;19.806;-70.704;2023-11-21T07:49:23;11.23;;;3.00;;
249;SDS011;109;19.806;-70.704;2023-11-21T07:51:50;7.50;;;2.67;;
249;SDS011;109;19.806;-70.704;2023-11-21T07:54:23;7.60;;;2.73;;
249;SDS011;109;19.806;-70.704;2023-11-21T07:56:50;13.40;;;2.90;;
249;SDS011;109;19.806;-70.704;2023-11-21T07:59:23;8.47;;;2.77;;
249;SDS011;109;19.806;-70.704;2023-11-21T08:01:50;8.50;;;2.80;;
249;SDS011;109;19.806;-70.704;2023-11-21T08:04:30;10.47;;;2.80;;
249;SDS011;109;19.806;-70.704;2023-11-21T08:07:04;8.70;;;2.60;;
249;SDS011;109;19.806;-70.704;2023-11-21T08:09:30;6.43;;;2.80;;
249;SDS011;109;19.806;-70.704;2023-11-21T08:12:03;12.30;;;3.50;;
249;SDS011;109;19.806;-70.704;2023-11-21T08:14:30;15.70;;;3.20;;
249;SDS011;109;19.806;-70.704;2023-11-21T08:17:03;11.20;;;2.40;;
249;SDS011;109;19.806;-70.704;2023-11-21T08:19:30;8.13;;;2.73;;
249;SDS011;109;19.806;-70.704;2023-11-21T08:22:03;6.20;;;2.47;;
249;SDS011;109;19.806;-70.704;2023-11-21T08:24:30;10.87;;;2.77;;
249;SDS011;109;19.806;-70.704;2023-11-21T08:27:03;6.53;;;2.50;;
249;SDS011;109;19.806;-70.704;2023-11-21T08:29:30;5.93;;;2.50;;
249;SDS011;109;19.806;-70.704;2023-11-21T08:32:03;8.33;;;2.57;;
249;SDS011;109;19.806;-70.704;2023-11-21T08:34:31;11.87;;;2.83;;
249;SDS011;109;19.806;-70.704;2023-11-21T08:37:03;13.23;;;2.97;;
249;SDS011;109;19.806;-70.704;2023-11-21T08:39:29;8.50;;;2.87;;
249;SDS011;109;19.806;-70.704;2023-11-21T08:42:02;5.40;;;2.67;;
249;SDS011;109;19.806;-70.704;2023-11-21T08:44:42;11.43;;;2.90;;
249;SDS011;109;19.806;-70.704;2023-11-21T08:47:09;10.70;;;3.07;;
249;SDS011;109;19.806;-70.704;2023-11-21T08:49:41;12.47;;;3.93;;
249;SDS011;109;19.806;-70.704;2023-11-21T08:52:07;10.53;;;3.47;;
249;SDS011;109;19.806;-70.704;2023-11-21T08:54:40;12.57;;;3.10;;
249;SDS011;109;19.806;-70.704;2023-11-21T08:57:06;5.07;;;2.50;;
249;SDS011;109;19.806;-70.704;2023-11-21T08:59:39;10.10;;;2.70;;
249;SDS011;109;19.806;-70.704;2023-11-21T09:02:05;10.60;;;2.90;;
249;SDS011;109;19.806;-70.704;2023-11-21T09:04:46;8.23;;;2.80;;
249;SDS011;109;19.806;-70.704;2023-11-21T09:07:19;4.10;;;2.30;;
249;SDS011;109;19.806;-70.704;2023-11-21T09:09:46;6.87;;;2.50;;
249;SDS011;109;19.806;-70.704;2023-11-21T09:12:20;7.27;;;2.60;;
249;SDS011;109;19.806;-70.704;2023-11-21T09:14:47;11.30;;;3.47;;
249;SDS011;109;19.806;-70.704;2023-11-21T09:17:22;7.97;;;2.80;;
249;SDS011;109;19.806;-70.704;2023-11-21T09:19:49;6.93;;;2.67;;
249;SDS011;109;19.806;-70.704;2023-11-21T09:22:23;7.97;;;3.00;;
249;SDS011;109;19.806;-70.704;2023-11-21T09:24:51;7.67;;;3.10;;
249;SDS011;109;19.806;-70.704;2023-11-21T09:27:24;12.57;;;2.90;;
249;SDS011;109;19.806;-70.704;2023-11-21T09:29:54;9.40;;;3.40;;
249;SDS011;109;19.806;-70.704;2023-11-21T09:32:27;14.80;;;3.40;;
249;SDS011;109;19.806;-70.704;2023-11-21T09:34:55;10.40;;;4.00;;
249;SDS011;109;19.806;-70.704;2023-11-21T09:37:31;15.00;;;3.60;;
249;SDS011;109;19.806;-70.704;2023-11-21T09:39:58;12.50;;;3.40;;
249;SDS011;109;19.806;-70.704;2023-11-21T09:42:43;15.40;;;3.80;;
249;SDS011;109;19.806;-70.704;2023-11-21T09:45:31;4.83;;;2.50;;
249;SDS011;109;19.806;-70.704;2023-11-21T09:48:07;11.20;;;3.10;;
249;SDS011;109;19.806;-70.704;2023-11-21T09:50:37;8.43;;;3.10;;
249;SDS011;109;19.806;-70.704;2023-11-21T09:55:57;9.30;;;3.20;;
249;SDS011;109;19.806;-70.704;2023-11-21T09:58:26;7.33;;;3.33;;
249;SDS011;109;19.806;-70.704;2023-11-21T10:01:07;10.33;;;3.10;;
249;SDS011;109;19.806;-70.704;2023-11-21T10:03:40;8.83;;;3.17;;
249;SDS011;109;19.806;-70.704;2023-11-21T10:06:07;7.73;;;3.13;;
249;SDS011;109;19.806;-70.704;2023-11-21T10:08:44;5.60;;;3.10;;
249;SDS011;109;19.806;-70.704;2023-11-21T10:11:18;7.00;;;3.20;;
249;SDS011;109;19.806;-70.704;2023-11-21T10:13:47;12.03;;;3.90;;
249;SDS011;109;19.806;-70.704;2023-11-21T10:16:22;11.67;;;3.23;;
249;SDS011;109;19.806;-70.704;2023-11-21T10:19:16;7.23;;;3.10;;
249;SDS011;109;19.806;-70.704;2023-11-21T10:21:44;7.80;;;3.17;;
249;SDS011;109;19.806;-70.704;2023-11-21T10:24:17;7.17;;;3.50;;
249;SDS011;109;19.806;-70.704;2023-11-21T10:26:43;8.40;;;3.10;;
249;SDS011;109;19.806;-70.704;2023-11-21T10:29:17;8.57;;;3.13;;
249;SDS011;109;19.806;-70.704;2023-11-21T10:53:44;12.43;;;4.50;;
249;SDS011;109;19.806;-70.704;2023-11-21T10:56:11;6.20;;;3.50;;
249;SDS011;109;19.806;-70.704;2023-11-21T10:58:45;9.50;;;3.53;;
249;SDS011;109;19.806;-70.704;2023-11-21T11:01:12;10.83;;;3.37;;
249;SDS011;109;19.806;-70.704;2023-11-21T11:03:41;10.37;;;3.30;;
249;SDS011;109;19.806;-70.704;2023-11-21T11:06:11;7.47;;;4.00;;
249;SDS011;109;19.806;-70.704;2023-11-21T11:08:39;6.27;;;3.53;;
249;SDS011;109;19.806;-70.704;2023-11-21T11:11:10;5.60;;;3.30;;
249;SDS011;109;19.806;-70.704;2023-11-21T11:13:37;14.77;;;3.73;;
249;SDS011;109;19.806;-70.704;2023-11-21T11:16:05;6.70;;;3.17;;
249;SDS011;109;19.806;-70.704;2023-11-21T11:18:32;6.30;;;3.60;;
249;SDS011;109;19.806;-70.704;2023-11-21T11:26:37;8.70;;;4.23;;
249;SDS011;109;19.806;-70.704;2023-11-21T11:29:47;9.17;;;4.07;;
249;SDS011;109;19.806;-70.704;2023-11-21T11:37:45;7.87;;;5.13;;
249;SDS011;109;19.806;-70.704;2023-11-21T11:40:11;8.90;;;4.60;;
249;SDS011;109;19.806;-70.704;2023-11-21T11:42:38;11.03;;;5.93;;
249;SDS011;109;19.806;-70.704;2023-11-21T11:45:16;12.37;;;5.20;;
249;SDS011;109;19.806;-70.704;2023-11-21T11:47:45;12.40;;;5.37;;
249;SDS011;109;19.806;-70.704;2023-11-21T11:50:13;6.43;;;4.60;;
249;SDS011;109;19.806;-70.704;2023-11-21T11:52:43;11.93;;;5.10;;
249;SDS011;109;19.806;-70.704;2023-11-21T11:55:11;6.13;;;4.00;;
249;SDS011;109;19.806;-70.704;2023-11-21T11:57:40;9.73;;;4.00;;
249;SDS011;109;19.806;-70.704;2023-11-21T12:00:14;6.13;;;4.10;;
249;SDS011;109;19.806;-70.704;2023-11-21T12:02:52;9.60;;;3.83;;
249;SDS011;109;19.806;-70.704;2023-11-21T12:05:30;5.70;;;4.00;;
249;SDS011;109;19.806;-70.704;2023-11-21T12:08:05;10.80;;;4.37;;
249;SDS011;109;19.806;-70.704;2023-11-21T12:10:33;9.33;;;3.83;;
249;SDS011;109;19.806;-70.704;2023-11-21T12:15:28;10.40;;;4.07;;
249;SDS011;109;19.806;-70.704;2023-11-21T12:17:56;9.93;;;4.40;;
249;SDS011;109;19.806;-70.704;2023-11-21T12:20:25;13.97;;;4.63;;
249;SDS011;109;19.806;-70.704;2023-11-21T12:22:53;19.27;;;4.33;;
249;SDS011;109;19.806;-70.704;2023-11-21T12:25:22;32.63;;;4.50;;
249;SDS011;109;19.806;-70.704;2023-11-21T12:27:52;26.00;;;5.57;;
249;SDS011;109;19.806;-70.704;2023-11-21T12:30:20;25.87;;;5.53;;
249;SDS011;109;19.806;-70.704;2023-11-21T12:32:52;26.70;;;5.33;;
249;SDS011;109;19.806;-70.704;2023-11-21T12:35:22;19.67;;;4.07;;
249;SDS011;109;19.806;-70.704;2023-11-21T12:37:53;14.00;;;4.37;;
249;SDS011;109;19.806;-70.704;2023-11-21T12:40:22;17.80;;;3.30;;
249;SDS011;109;19.806;-70.704;2023-11-21T12:42:51;16.43;;;3.80;;
249;SDS011;109;19.806;-70.704;2023-11-21T12:47:55;14.07;;;3.30;;
249;SDS011;109;19.806;-70.704;2023-11-21T12:50:26;16.20;;;3.57;;
249;SDS011;109;19.806;-70.704;2023-11-21T12:52:57;13.33;;;3.80;;
249;SDS011;109;19.806;-70.704;2023-11-21T12:55:25;20.93;;;3.83;;
249;SDS011;109;19.806;-70.704;2023-11-21T12:57:53;12.40;;;3.73;;
249;SDS011;109;19.806;-70.704;2023-11-21T13:00:28;11.10;;;3.70;;
249;SDS011;109;19.806;-70.704;2023-11-21T13:02:59;16.40;;;4.03;;
249;SDS011;109;19.806;-70.704;2023-11-21T13:05:26;16.33;;;5.17;;
249;SDS011;109;19.806;-70.704;2023-11-21T13:07:55;13.83;;;5.50;;
249;SDS011;109;19.806;-70.704;2023-11-21T13:10:24;14.63;;;5.50;;
249;SDS011;109;19.806;-70.704;2023-11-21T13:12:55;12.40;;;4.07;;
249;SDS011;109;19.806;-70.704;2023-11-21T13:15:27;10.30;;;4.20;;
249;SDS011;109;19.806;-70.704;2023-11-21T13:17:54;10.83;;;4.07;;
249;SDS011;109;19.806;-70.704;2023-11-21T13:20:23;11.33;;;3.97;;
249;SDS011;109;19.806;-70.704;2023-11-21T13:22:54;8.20;;;4.17;;
249;SDS011;109;19.806;-70.704;2023-11-21T13:25:31;9.13;;;3.90;;
249;SDS011;109;19.806;-70.704;2023-11-21T13:27:58;15.90;;;4.10;;
249;SDS011;109;19.806;-70.704;2023-11-21T13:30:26;11.20;;;3.80;;
249;SDS011;109;19.806;-70.704;2023-11-21T13:32:54;9.03;;;3.60;;
249;SDS011;109;19.806;-70.704;2023-11-21T13:35:30;12.43;;;3.93;;
249;SDS011;109;19.806;-70.704;2023-11-21T13:38:09;10.53;;;4.57;;
249;SDS011;109;19.806;-70.704;2023-11-21T13:40:40;6.57;;;3.60;;
249;SDS011;109;19.806;-70.704;2023-11-21T13:43:17;13.20;;;4.47;;
249;SDS011;109;19.806;-70.704;2023-11-21T13:45:46;14.53;;;6.20;;
249;SDS011;109;19.806;-70.704;2023-11-21T13:48:23;8.37;;;5.27;;
249;SDS011;109;19.806;-70.704;2023-11-21T13:51:14;13.93;;;5.33;;
249;SDS011;109;19.806;-70.704;2023-11-21T13:53:47;13.67;;;5.67;;
249;SDS011;109;19.806;-70.704;2023-11-21T13:56:16;10.63;;;5.30;;
249;SDS011;109;19.806;-70.704;2023-11-21T13:58:47;17.33;;;5.90;;
249;SDS011;109;19.806;-70.704;2023-11-21T14:01:17;11.30;;;4.00;;
249;SDS011;109;19.806;-70.704;2023-11-21T14:04:10;16.03;;;3.47;;
249;SDS011;109;19.806;-70.704;2023-11-21T14:06:43;15.43;;;4.10;;
249;SDS011;109;19.806;-70.704;2023-11-21T14:09:18;13.20;;;3.30;;
249;SDS011;109;19.806;-70.704;2023-11-21T14:11:57;15.13;;;2.80;;
249;SDS011;109;19.806;-70.704;2023-11-21T14:14:24;15.00;;;3.07;;
249;SDS011;109;19.806;-70.704;2023-11-21T14:16:53;11.80;;;3.30;;
249;SDS011;109;19.806;-70.704;2023-11-21T14:19:24;15.57;;;2.90;;
249;SDS011;109;19.806;-70.704;2023-11-21T14:21:57;19.07;;;3.13;;
249;SDS011;109;19.806;-70.704;2023-11-21T14:24:24;13.03;;;3.03;;
249;SDS011;109;19.806;-70.704;2023-11-21T14:26:51;16.43;;;3.60;;
249;SDS011;109;19.806;-70.704;2023-11-21T14:29:18;13.33;;;3.10;;
249;SDS011;109;19.806;-70.704;2023-11-21T14:31:46;13.57;;;3.63;;
249;SDS011;109;19.806;-70.704;2023-11-21T14:34:13;15.93;;;3.00;;
249;SDS011;109;19.806;-70.704;2023-11-21T14:36:40;12.80;;;3.07;;
249;SDS011;109;19.806;-70.704;2023-11-21T14:39:08;23.20;;;4.10;;
249;SDS011;109;19.806;-70.704;2023-11-21T14:41:46;12.73;;;3.70;;
249;SDS011;109;19.806;-70.704;2023-11-21T14:44:12;16.53;;;3.50;;
249;SDS011;109;19.806;-70.704;2023-11-21T14:46:40;10.30;;;2.70;;
249;SDS011;109;19.806;-70.704;2023-11-21T14:49:12;15.23;;;2.97;;
249;SDS011;109;19.806;-70.704;2023-11-21T14:51:51;7.70;;;2.40;;
249;SDS011;109;19.806;-70.704;2023-11-21T14:54:47;8.20;;;2.70;;
249;SDS011;109;19.806;-70.704;2023-11-21T14:57:25;10.47;;;2.70;;
249;SDS011;109;19.806;-70.704;2023-11-21T14:59:52;10.40;;;3.43;;
249;SDS011;109;19.806;-70.704;2023-11-21T15:02:23;8.43;;;2.43;;
249;SDS011;109;19.806;-70.704;2023-11-21T15:05:08;12.07;;;2.57;;
249;SDS011;109;19.806;-70.704;2023-11-21T15:07:40;10.87;;;2.50;;
249;SDS011;109;19.806;-70.704;2023-11-21T15:10:07;14.60;;;3.17;;
249;SDS011;109;19.806;-70.704;2023-11-21T15:12:40;12.53;;;2.90;;
249;SDS011;109;19.806;-70.704;2023-11-21T15:15:09;10.57;;;3.00;;
249;SDS011;109;19.806;-70.704;2023-11-21T15:17:39;13.57;;;2.80;;
249;SDS011;109;19.806;-70.704;2023-11-21T15:20:08;8.50;;;2.30;;
249;SDS011;109;19.806;-70.704;2023-11-21T15:22:35;14.27;;;3.20;;
249;SDS011;109;19.806;-70.704;2023-11-21T15:25:03;11.97;;;2.90;;
249;SDS011;109;19.806;-70.704;2023-11-21T15:27:35;10.67;;;2.80;;
249;SDS011;109;19.806;-70.704;2023-11-21T15:30:02;12.50;;;2.60;;
249;SDS011;109;19.806;-70.704;2023-11-21T15:32:29;8.40;;;2.73;;
249;SDS011;109;19.806;-70.704;2023-11-21T15:34:55;7.17;;;2.37;;
249;SDS011;109;19.806;-70.704;2023-11-21T15:37:22;11.43;;;2.40;;
249;SDS011;109;19.806;-70.704;2023-11-21T15:39:51;10.73;;;2.77;;
249;SDS011;109;19.806;-70.704;2023-11-21T15:42:18;7.33;;;2.60;;
249;SDS011;109;19.806;-70.704;2023-11-21T15:44:45;8.57;;;2.63;;
249;SDS011;109;19.806;-70.704;2023-11-21T15:47:11;6.93;;;2.60;;
249;SDS011;109;19.806;-70.704;2023-11-21T15:49:38;10.20;;;3.43;;
249;SDS011;109;19.806;-70.704;2023-11-21T15:52:05;20.90;;;3.27;;
249;SDS011;109;19.806;-70.704;2023-11-21T15:54:34;11.03;;;2.30;;
249;SDS011;109;19.806;-70.704;2023-11-21T15:57:01;14.93;;;3.10;;
249;SDS011;109;19.806;-70.704;2023-11-21T15:59:29;15.90;;;3.20;;
249;SDS011;109;19.806;-70.704;2023-11-21T16:01:59;20.37;;;3.67;;
249;SDS011;109;19.806;-70.704;2023-11-21T16:04:26;10.07;;;3.30;;
249;SDS011;109;19.806;-70.704;2023-11-21T16:06:53;12.63;;;3.00;;
249;SDS011;109;19.806;-70.704;2023-11-21T16:09:20;14.60;;;4.83;;